Time;durP1;ratioP1;P1;durP2;ratioP2;P2;SDS_P1;SDS_P2;PMS_P1;PMS_P2;Temp;Humidity;BMP_temperature;BMP_pressure;BME280_temperature;BME280_humidity;BME280_pressure;Samples;Min_cycle;Max_cycle;Signal;HPM_P1;HPM_P2
2021/07/13 00:02:00;;;;;;;4.35;3.00;;;;;;;;;;4993548;28;20096;-45
2021/07/13 00:04:27;;;;;;;4.63;3.08;;;;;;;;;;4994800;28;20070;-43
2021/07/13 00:06:54;;;;;;;4.82;2.90;;;;;;;;;;5012660;28;20474;-42
2021/07/13 00:09:20;;;;;;;5.22;3.00;;;;;;;;;;5009996;28;20044;-43
2021/07/13 00:11:48;;;;;;;5.05;3.00;;;;;;;;;;4992649;28;20042;-49
2021/07/13 00:14:15;;;;;;;3.42;2.80;;;;;;;;;;4992824;28;20121;-43
2021/07/13 00:16:42;;;;;;;4.13;2.92;;;;;;;;;;4993043;28;20443;-45
2021/07/13 00:19:09;;;;;;;5.47;3.03;;;;;;;;;;4992758;28;20062;-46
2021/07/13 00:21:37;;;;;;;5.20;2.80;;;;;;;;;;5013817;28;20172;-44
2021/07/13 00:24:05;;;;;;;4.68;2.88;;;;;;;;;;5000902;28;20046;-45
2021/07/13 00:26:31;;;;;;;5.00;2.60;;;;;;;;;;5011591;28;20053;-48
2021/07/13 00:28:58;;;;;;;4.68;2.55;;;;;;;;;;5012204;28;20050;-43
2021/07/13 00:31:25;;;;;;;4.40;2.92;;;;;;;;;;5009599;28;20041;-43
2021/07/13 00:33:52;;;;;;;5.45;2.65;;;;;;;;;;4992189;28;20113;-45
2021/07/13 00:36:18;;;;;;;4.05;2.83;;;;;;;;;;5007797;28;20053;-43
2021/07/13 00:38:45;;;;;;;3.97;2.80;;;;;;;;;;5012115;28;20499;-43
2021/07/13 00:41:12;;;;;;;3.58;2.70;;;;;;;;;;4996642;28;20096;-43
2021/07/13 00:43:38;;;;;;;4.78;3.08;;;;;;;;;;5002814;28;20048;-42
2021/07/13 00:46:05;;;;;;;4.97;2.92;;;;;;;;;;4998607;28;20081;-45
2021/07/13 00:48:32;;;;;;;4.93;2.97;;;;;;;;;;4992048;28;20065;-47
2021/07/13 00:51:06;;;;;;;7.50;3.47;;;;;;;;;;4998864;28;20528;-43
2021/07/13 00:53:33;;;;;;;4.28;3.20;;;;;;;;;;4991745;28;20073;-44
2021/07/13 00:55:59;;;;;;;4.47;3.20;;;;;;;;;;5004124;28;20077;-43
2021/07/13 00:58:26;;;;;;;4.85;2.60;;;;;;;;;;5004279;28;20046;-43
2021/07/13 01:00:53;;;;;;;6.20;3.15;;;;;;;;;;5004402;28;20499;-42
2021/07/13 01:03:20;;;;;;;5.82;3.03;;;;;;;;;;4994723;28;20072;-43
2021/07/13 01:05:47;;;;;;;7.15;3.20;;;;;;;;;;5002142;28;20464;-45
2021/07/13 01:08:17;;;;;;;4.47;3.00;;;;;;;;;;5001925;28;20050;-42
2021/07/13 01:10:48;;;;;;;7.38;3.03;;;;;;;;;;4994624;28;20058;-43
2021/07/13 01:13:35;;;;;;;4.32;2.90;;;;;;;;;;4991870;28;20488;-46
2021/07/13 01:16:21;;;;;;;3.92;3.00;;;;;;;;;;5004443;28;20057;-45
2021/07/13 01:18:51;;;;;;;4.72;2.90;;;;;;;;;;4999280;28;20058;-43
2021/07/13 01:21:38;;;;;;;3.90;3.13;;;;;;;;;;5011093;28;20133;-43
2021/07/13 01:24:08;;;;;;;5.20;3.70;;;;;;;;;;5012250;28;20139;-47
2021/07/13 01:29:30;;;;;;;4.82;3.10;;;;;;;;;;5279595;23;20012;-44
2021/07/13 01:31:59;;;;;;;4.55;3.40;;;;;;;;;;4951731;28;20043;-44
2021/07/13 01:34:28;;;;;;;5.93;3.00;;;;;;;;;;4964117;28;20043;-44
2021/07/13 01:36:56;;;;;;;4.88;3.60;;;;;;;;;;4938132;29;20054;-45
2021/07/13 01:39:24;;;;;;;6.68;3.45;;;;;;;;;;4937436;29;20051;-45
2021/07/13 01:41:53;;;;;;;4.40;3.35;;;;;;;;;;4947595;29;20051;-46
2021/07/13 01:44:22;;;;;;;4.88;3.10;;;;;;;;;;4938130;29;20044;-44
2021/07/13 01:46:49;;;;;;;6.57;3.38;;;;;;;;;;4937936;29;20126;-44
2021/07/13 01:49:19;;;;;;;4.75;3.30;;;;;;;;;;4938717;29;20094;-44
2021/07/13 01:51:47;;;;;;;6.97;3.95;;;;;;;;;;4936265;29;20170;-44
2021/07/13 01:54:16;;;;;;;6.57;3.75;;;;;;;;;;4938028;28;20040;-44
2021/07/13 01:56:44;;;;;;;7.82;3.88;;;;;;;;;;4936116;29;20572;-43
2021/07/13 01:59:13;;;;;;;6.63;3.45;;;;;;;;;;4946206;29;20551;-43
2021/07/13 02:01:41;;;;;;;5.68;3.55;;;;;;;;;;4937846;29;20290;-45
2021/07/13 02:04:09;;;;;;;4.53;3.60;;;;;;;;;;4951229;29;20465;-44
2021/07/13 02:06:36;;;;;;;6.38;3.35;;;;;;;;;;4952106;28;20063;-43
2021/07/13 02:09:06;;;;;;;4.65;3.28;;;;;;;;;;4947644;29;20515;-43
2021/07/13 02:11:33;;;;;;;5.25;3.53;;;;;;;;;;4937162;29;20048;-43
2021/07/13 02:13:59;;;;;;;4.68;3.28;;;;;;;;;;4950659;29;20036;-43
2021/07/13 02:16:26;;;;;;;7.68;4.45;;;;;;;;;;4937833;29;20068;-45
2021/07/13 02:18:53;;;;;;;5.15;3.50;;;;;;;;;;4943572;29;20047;-43
2021/07/13 02:21:20;;;;;;;7.32;3.40;;;;;;;;;;4956558;28;20054;-43
2021/07/13 02:23:47;;;;;;;4.18;3.25;;;;;;;;;;4951679;28;20044;-43
2021/07/13 02:26:21;;;;;;;4.95;3.90;;;;;;;;;;4937352;29;20050;-43
2021/07/13 02:28:49;;;;;;;7.82;4.00;;;;;;;;;;4943004;29;20040;-43
2021/07/13 02:31:37;;;;;;;4.55;3.65;;;;;;;;;;4936371;29;20055;-43
2021/07/13 02:34:25;;;;;;;6.90;4.15;;;;;;;;;;4950714;29;20063;-47
2021/07/13 02:36:52;;;;;;;5.65;4.00;;;;;;;;;;4956010;28;20810;-46
2021/07/13 02:39:20;;;;;;;6.43;3.95;;;;;;;;;;4952155;28;20050;-45
2021/07/13 02:41:48;;;;;;;5.55;3.72;;;;;;;;;;4955776;28;20075;-44
2021/07/13 02:44:16;;;;;;;10.13;3.75;;;;;;;;;;4941286;28;20062;-46
2021/07/13 02:46:43;;;;;;;5.10;4.13;;;;;;;;;;4945253;29;20051;-44
2021/07/13 02:49:15;;;;;;;5.32;3.90;;;;;;;;;;4936173;29;20497;-44
2021/07/13 02:51:42;;;;;;;6.40;3.80;;;;;;;;;;4937637;29;20040;-45
2021/07/13 02:54:09;;;;;;;5.85;4.25;;;;;;;;;;4948431;29;20047;-46
2021/07/13 02:56:38;;;;;;;9.50;4.68;;;;;;;;;;4951540;28;20066;-43
2021/07/13 02:59:06;;;;;;;7.43;4.20;;;;;;;;;;4946499;28;20106;-45
2021/07/13 03:01:33;;;;;;;10.00;4.25;;;;;;;;;;4936152;29;20048;-46
2021/07/13 03:04:01;;;;;;;7.10;4.28;;;;;;;;;;4946778;29;20063;-45
2021/07/13 03:06:27;;;;;;;5.97;4.60;;;;;;;;;;4940957;28;20126;-43
2021/07/13 03:08:54;;;;;;;5.47;4.18;;;;;;;;;;4937265;29;20541;-45
2021/07/13 03:11:21;;;;;;;5.95;4.38;;;;;;;;;;4935103;29;20067;-46
2021/07/13 03:13:48;;;;;;;6.05;4.28;;;;;;;;;;4936138;29;20054;-46
2021/07/13 03:16:15;;;;;;;7.28;4.60;;;;;;;;;;4944490;29;20047;-44
2021/07/13 03:18:42;;;;;;;6.57;4.18;;;;;;;;;;4944264;29;20493;-45
2021/07/13 03:21:09;;;;;;;4.95;3.95;;;;;;;;;;4946550;29;20039;-47
2021/07/13 03:23:38;;;;;;;5.60;3.45;;;;;;;;;;4951671;28;20071;-43
2021/07/13 03:26:06;;;;;;;5.88;3.80;;;;;;;;;;4938352;28;20044;-43
2021/07/13 03:28:33;;;;;;;6.60;4.10;;;;;;;;;;4939196;28;20087;-46
2021/07/13 03:31:00;;;;;;;7.03;3.92;;;;;;;;;;4935622;29;20517;-43
2021/07/13 03:33:27;;;;;;;4.25;3.83;;;;;;;;;;4954147;28;20054;-45
2021/07/13 03:35:55;;;;;;;4.75;3.90;;;;;;;;;;4956338;28;20444;-43
2021/07/13 03:38:22;;;;;;;4.07;3.63;;;;;;;;;;4941713;28;20103;-44
2021/07/13 03:40:49;;;;;;;6.88;3.90;;;;;;;;;;4942650;29;20091;-43
2021/07/13 03:43:17;;;;;;;8.90;3.90;;;;;;;;;;4953684;28;20039;-44
2021/07/13 03:45:44;;;;;;;6.30;3.80;;;;;;;;;;4953164;28;20047;-45
2021/07/13 03:48:11;;;;;;;5.07;3.55;;;;;;;;;;4944181;28;20390;-45
2021/07/13 03:50:38;;;;;;;7.35;3.40;;;;;;;;;;4940571;29;20519;-45
2021/07/13 03:53:05;;;;;;;6.05;3.50;;;;;;;;;;4953225;29;20079;-46
2021/07/13 03:55:32;;;;;;;5.22;3.67;;;;;;;;;;4936538;28;20453;-43
2021/07/13 03:57:59;;;;;;;6.60;3.67;;;;;;;;;;4936131;29;20417;-43
2021/07/13 04:00:27;;;;;;;4.75;3.60;;;;;;;;;;4935057;28;20039;-44
2021/07/13 04:02:54;;;;;;;4.20;3.35;;;;;;;;;;4935245;29;20039;-44
2021/07/13 04:05:21;;;;;;;6.45;3.65;;;;;;;;;;4937268;29;20035;-43
2021/07/13 04:07:48;;;;;;;5.90;3.67;;;;;;;;;;4945667;28;20054;-44
2021/07/13 04:10:15;;;;;;;6.03;3.80;;;;;;;;;;4950008;29;20051;-44
2021/07/13 04:12:43;;;;;;;6.88;3.47;;;;;;;;;;4935502;29;20048;-43
2021/07/13 04:15:10;;;;;;;5.70;3.90;;;;;;;;;;4951916;29;20047;-43
2021/07/13 04:17:37;;;;;;;5.55;3.60;;;;;;;;;;4952219;28;20035;-45
2021/07/13 04:20:05;;;;;;;6.97;3.88;;;;;;;;;;4937168;28;20517;-44
2021/07/13 04:22:32;;;;;;;6.90;4.05;;;;;;;;;;4934908;29;20111;-45
2021/07/13 04:25:03;;;;;;;4.50;3.88;;;;;;;;;;4935894;28;20047;-45
2021/07/13 04:27:30;;;;;;;5.30;3.83;;;;;;;;;;4947545;28;20062;-43
2021/07/13 04:29:57;;;;;;;8.43;4.25;;;;;;;;;;4934737;28;20044;-43
2021/07/13 04:32:23;;;;;;;6.57;4.28;;;;;;;;;;4940011;29;20040;-45
2021/07/13 04:34:50;;;;;;;5.60;4.22;;;;;;;;;;4939693;28;20163;-44
2021/07/13 04:37:17;;;;;;;6.93;4.25;;;;;;;;;;4941783;29;20081;-48
2021/07/13 04:39:44;;;;;;;7.03;4.03;;;;;;;;;;4937585;28;20048;-43
2021/07/13 04:42:10;;;;;;;5.45;4.47;;;;;;;;;;4934864;29;20056;-43
2021/07/13 04:44:37;;;;;;;7.05;4.00;;;;;;;;;;4941430;29;20071;-43
2021/07/13 04:47:04;;;;;;;5.50;4.28;;;;;;;;;;4934481;28;20047;-46
2021/07/13 04:49:31;;;;;;;5.20;4.07;;;;;;;;;;4947050;29;20490;-43
2021/07/13 04:51:59;;;;;;;6.22;3.80;;;;;;;;;;4951536;28;20039;-43
2021/07/13 04:54:26;;;;;;;6.45;4.00;;;;;;;;;;4947830;28;20142;-43
2021/07/13 04:56:53;;;;;;;7.43;4.05;;;;;;;;;;4935161;28;20476;-45
2021/07/13 04:59:19;;;;;;;8.35;4.53;;;;;;;;;;4938298;28;20057;-46
2021/07/13 05:01:46;;;;;;;5.00;4.13;;;;;;;;;;4950391;28;20050;-45
2021/07/13 05:04:14;;;;;;;7.85;4.90;;;;;;;;;;4944293;28;20051;-46
2021/07/13 05:06:42;;;;;;;5.95;3.63;;;;;;;;;;4953284;28;20051;-43
2021/07/13 05:09:09;;;;;;;5.53;4.03;;;;;;;;;;4945504;28;20090;-44
2021/07/13 05:11:37;;;;;;;7.88;4.95;;;;;;;;;;4934428;28;20077;-44
2021/07/13 05:14:04;;;;;;;4.78;3.60;;;;;;;;;;4938281;29;20099;-43
2021/07/13 05:16:31;;;;;;;6.82;4.50;;;;;;;;;;4934383;29;20044;-44
2021/07/13 05:19:00;;;;;;;6.10;3.88;;;;;;;;;;4943676;28;20051;-43
2021/07/13 05:21:26;;;;;;;8.13;4.20;;;;;;;;;;4944279;28;20068;-44
2021/07/13 05:23:53;;;;;;;5.35;3.70;;;;;;;;;;4938858;28;20031;-46
2021/07/13 05:26:20;;;;;;;5.18;4.20;;;;;;;;;;4945186;28;20051;-46
2021/07/13 05:28:48;;;;;;;5.57;4.13;;;;;;;;;;4946786;28;20042;-45
2021/07/13 05:31:15;;;;;;;5.57;4.22;;;;;;;;;;4949003;29;20050;-44
2021/07/13 05:33:42;;;;;;;5.35;4.03;;;;;;;;;;4944536;28;20447;-42
2021/07/13 05:36:09;;;;;;;5.22;4.15;;;;;;;;;;4947782;29;20560;-41
2021/07/13 05:38:36;;;;;;;8.30;4.20;;;;;;;;;;4949735;28;20039;-41
2021/07/13 05:41:02;;;;;;;9.40;4.43;;;;;;;;;;4950640;28;20047;-42
2021/07/13 05:43:29;;;;;;;6.65;4.35;;;;;;;;;;4955883;28;20039;-41
2021/07/13 05:45:56;;;;;;;10.00;5.03;;;;;;;;;;4955143;28;20045;-41
2021/07/13 05:48:23;;;;;;;8.77;4.10;;;;;;;;;;4951155;28;20043;-47
2021/07/13 05:50:49;;;;;;;8.50;4.55;;;;;;;;;;4951034;28;20043;-43
2021/07/13 05:53:16;;;;;;;6.15;4.38;;;;;;;;;;4954790;28;20474;-44
2021/07/13 05:55:43;;;;;;;6.72;4.20;;;;;;;;;;4945751;28;20054;-48
2021/07/13 05:58:10;;;;;;;8.20;4.10;;;;;;;;;;4953693;28;20492;-46
2021/07/13 06:00:37;;;;;;;7.32;4.45;;;;;;;;;;4940962;28;20074;-43
2021/07/13 06:03:04;;;;;;;7.03;4.50;;;;;;;;;;4963122;28;20130;-44
2021/07/13 06:05:30;;;;;;;6.65;4.45;;;;;;;;;;4949261;28;20039;-42
2021/07/13 06:07:57;;;;;;;7.90;4.75;;;;;;;;;;4950550;28;20048;-50
2021/07/13 06:10:24;;;;;;;8.52;4.60;;;;;;;;;;4954954;28;20077;-45
2021/07/13 06:12:50;;;;;;;8.32;4.55;;;;;;;;;;4955267;28;20035;-47
2021/07/13 06:15:19;;;;;;;6.97;4.97;;;;;;;;;;4946911;28;20061;-48
2021/07/13 06:17:45;;;;;;;10.38;5.35;;;;;;;;;;4951475;28;20035;-45
2021/07/13 06:20:13;;;;;;;7.63;4.22;;;;;;;;;;4963529;28;20081;-45
2021/07/13 06:22:40;;;;;;;6.82;4.88;;;;;;;;;;4956052;28;20620;-43
2021/07/13 06:25:07;;;;;;;10.45;5.30;;;;;;;;;;4952184;28;20493;-43
2021/07/13 06:27:34;;;;;;;6.45;4.82;;;;;;;;;;4950284;29;20493;-46
2021/07/13 06:30:01;;;;;;;7.03;4.82;;;;;;;;;;4954185;28;20073;-46
2021/07/13 06:32:28;;;;;;;8.68;5.18;;;;;;;;;;4953863;28;20039;-42
2021/07/13 06:34:55;;;;;;;8.77;5.07;;;;;;;;;;4949225;28;20141;-42
2021/07/13 06:37:21;;;;;;;9.48;5.28;;;;;;;;;;4952089;28;20039;-45
2021/07/13 06:39:48;;;;;;;11.10;4.80;;;;;;;;;;4958039;28;20138;-42
2021/07/13 06:42:15;;;;;;;6.10;4.47;;;;;;;;;;4961009;28;20990;-44
2021/07/13 06:44:41;;;;;;;7.05;4.68;;;;;;;;;;4954084;28;20046;-45
2021/07/13 06:47:08;;;;;;;6.82;5.00;;;;;;;;;;4939468;28;20075;-46
2021/07/13 06:49:35;;;;;;;6.20;4.88;;;;;;;;;;4961554;28;20066;-42
2021/07/13 06:52:02;;;;;;;7.47;4.55;;;;;;;;;;4960803;28;20047;-42
2021/07/13 06:54:29;;;;;;;6.18;4.80;;;;;;;;;;4952824;28;20039;-46
2021/07/13 06:56:56;;;;;;;6.57;4.50;;;;;;;;;;4953694;28;20107;-43
2021/07/13 06:59:23;;;;;;;6.00;4.82;;;;;;;;;;4963660;28;20516;-43
2021/07/13 07:01:49;;;;;;;12.75;4.97;;;;;;;;;;4964354;28;20051;-43
2021/07/13 07:04:17;;;;;;;6.95;4.95;;;;;;;;;;4972074;28;20054;-45
2021/07/13 07:06:43;;;;;;;7.53;4.82;;;;;;;;;;4965629;28;20047;-45
2021/07/13 07:09:10;;;;;;;7.13;5.40;;;;;;;;;;4943965;28;20153;-45
2021/07/13 07:11:37;;;;;;;6.30;4.35;;;;;;;;;;4961915;28;20040;-45
2021/07/13 07:14:04;;;;;;;7.57;4.47;;;;;;;;;;4965970;28;20038;-47
2021/07/13 07:16:31;;;;;;;5.57;4.72;;;;;;;;;;4954663;28;20131;-43
2021/07/13 07:18:58;;;;;;;7.90;4.78;;;;;;;;;;4952790;28;20035;-46
2021/07/13 07:21:24;;;;;;;9.07;4.72;;;;;;;;;;4954844;28;20139;-48
2021/07/13 07:23:51;;;;;;;5.10;4.60;;;;;;;;;;4953768;28;20047;-45
2021/07/13 07:26:18;;;;;;;7.07;5.10;;;;;;;;;;4954399;28;20071;-46
2021/07/13 07:28:45;;;;;;;5.68;4.70;;;;;;;;;;4946635;28;20126;-48
2021/07/13 07:31:11;;;;;;;6.85;4.93;;;;;;;;;;4940641;29;20048;-45
2021/07/13 07:33:38;;;;;;;8.25;4.35;;;;;;;;;;4955296;28;20036;-45
2021/07/13 07:36:05;;;;;;;8.07;5.40;;;;;;;;;;4953586;28;20074;-49
2021/07/13 07:38:32;;;;;;;6.13;5.15;;;;;;;;;;4942733;28;20164;-45
2021/07/13 07:41:00;;;;;;;6.90;5.30;;;;;;;;;;4930729;28;20043;-44
2021/07/13 07:43:27;;;;;;;8.07;5.47;;;;;;;;;;4961867;28;20051;-44
2021/07/13 07:45:54;;;;;;;8.95;5.35;;;;;;;;;;4952492;28;20387;-48
2021/07/13 07:48:24;;;;;;;11.23;5.10;;;;;;;;;;4956654;28;20047;-49
2021/07/13 07:50:51;;;;;;;7.15;5.35;;;;;;;;;;4954849;28;20050;-46
2021/07/13 07:53:18;;;;;;;6.53;4.80;;;;;;;;;;4960380;28;20093;-46
2021/07/13 07:55:44;;;;;;;7.88;5.85;;;;;;;;;;4949447;28;20044;-48
2021/07/13 07:58:11;;;;;;;6.20;5.43;;;;;;;;;;4944718;28;20043;-49
2021/07/13 08:00:38;;;;;;;8.45;6.35;;;;;;;;;;4951776;28;20580;-47
2021/07/13 08:03:10;;;;;;;7.28;6.43;;;;;;;;;;4941529;28;20079;-45
2021/07/13 08:05:37;;;;;;;8.10;6.93;;;;;;;;;;4954219;28;20082;-48
2021/07/13 08:08:04;;;;;;;8.18;6.72;;;;;;;;;;4943893;28;20109;-48
2021/07/13 08:10:31;;;;;;;10.15;7.97;;;;;;;;;;4954549;29;20126;-45
2021/07/13 08:12:58;;;;;;;8.30;7.45;;;;;;;;;;4948761;28;20503;-48
2021/07/13 08:15:26;;;;;;;8.35;7.55;;;;;;;;;;4963393;28;20560;-48
2021/07/13 08:17:53;;;;;;;8.57;7.18;;;;;;;;;;4964099;28;20047;-43
2021/07/13 08:20:20;;;;;;;9.05;6.97;;;;;;;;;;4945925;28;20127;-46
2021/07/13 08:22:48;;;;;;;7.50;6.80;;;;;;;;;;4950431;28;20043;-48
2021/07/13 08:25:15;;;;;;;7.65;6.35;;;;;;;;;;4943934;29;20074;-44
2021/07/13 08:27:42;;;;;;;7.30;6.53;;;;;;;;;;4948151;29;20051;-43
2021/07/13 08:30:09;;;;;;;9.63;7.32;;;;;;;;;;4942090;28;20135;-43
2021/07/13 08:32:36;;;;;;;7.28;6.00;;;;;;;;;;4966711;28;20093;-49
2021/07/13 08:35:04;;;;;;;8.32;7.50;;;;;;;;;;4947093;28;20055;-47
2021/07/13 08:37:32;;;;;;;8.18;6.65;;;;;;;;;;4952448;28;20457;-48
2021/07/13 08:40:00;;;;;;;7.10;6.40;;;;;;;;;;4949512;28;20106;-45
2021/07/13 08:42:29;;;;;;;12.98;9.90;;;;;;;;;;4952600;28;20043;-45
2021/07/13 08:44:57;;;;;;;10.20;9.20;;;;;;;;;;4961077;28;20043;-45
2021/07/13 08:47:23;;;;;;;10.68;9.70;;;;;;;;;;4959865;28;20161;-45
2021/07/13 08:49:51;;;;;;;11.63;10.63;;;;;;;;;;4944111;28;20504;-43
2021/07/13 08:52:18;;;;;;;11.88;10.77;;;;;;;;;;4954104;28;20134;-48
2021/07/13 08:54:44;;;;;;;12.13;10.93;;;;;;;;;;4948510;28;20414;-48
2021/07/13 08:57:11;;;;;;;11.82;10.57;;;;;;;;;;4967150;28;20105;-47
2021/07/13 08:59:38;;;;;;;13.38;11.25;;;;;;;;;;4939446;28;20443;-46
2021/07/13 09:02:05;;;;;;;11.27;10.20;;;;;;;;;;4953722;28;20385;-46
2021/07/13 09:04:33;;;;;;;11.15;9.82;;;;;;;;;;4954182;28;20043;-44
2021/07/13 09:07:01;;;;;;;10.55;9.50;;;;;;;;;;4936722;28;20475;-45
2021/07/13 09:09:32;;;;;;;12.32;8.90;;;;;;;;;;4936180;28;20059;-50
2021/07/13 09:12:05;;;;;;;9.25;8.10;;;;;;;;;;4952026;28;20040;-45
2021/07/13 09:14:31;;;;;;;;;;;;;;;;;;4947839;28;20162;-47
2021/07/13 09:16:59;;;;;;;9.05;8.18;;;;;;;;;;4958634;28;19926;-44
2021/07/13 09:19:26;;;;;;;8.32;7.63;;;;;;;;;;4964401;28;20107;-46
2021/07/13 09:21:53;;;;;;;8.95;8.05;;;;;;;;;;4954455;28;20702;-47
2021/07/13 09:24:21;;;;;;;8.65;7.85;;;;;;;;;;4947621;28;20075;-43
2021/07/13 09:26:50;;;;;;;8.02;7.13;;;;;;;;;;4937558;29;20406;-48
2021/07/13 09:29:27;;;;;;;7.72;6.95;;;;;;;;;;4949087;28;20386;-49
2021/07/13 09:31:55;;;;;;;8.05;7.22;;;;;;;;;;4952836;28;20031;-44
2021/07/13 09:34:21;;;;;;;9.30;7.40;;;;;;;;;;4953575;28;20063;-46
2021/07/13 09:36:53;;;;;;;9.15;6.78;;;;;;;;;;4955815;28;20097;-44
2021/07/13 09:39:24;;;;;;;7.65;6.50;;;;;;;;;;4953883;28;20504;-43
2021/07/13 09:41:54;;;;;;;7.65;6.95;;;;;;;;;;4956353;28;20126;-44
2021/07/13 09:44:22;;;;;;;9.15;7.03;;;;;;;;;;4955455;28;20043;-48
2021/07/13 09:46:51;;;;;;;7.55;6.85;;;;;;;;;;4955706;28;20501;-43
2021/07/13 09:49:22;;;;;;;9.25;7.32;;;;;;;;;;4951723;28;20059;-45
2021/07/13 09:51:59;;;;;;;7.97;7.18;;;;;;;;;;4955331;28;20043;-45
2021/07/13 09:54:36;;;;;;;7.63;6.82;;;;;;;;;;4961476;28;20040;-46
2021/07/13 09:57:07;;;;;;;11.40;8.18;;;;;;;;;;4953983;28;20070;-44
2021/07/13 09:59:34;;;;;;;8.93;8.02;;;;;;;;;;4942753;28;20445;-46
2021/07/13 10:02:02;;;;;;;9.75;8.85;;;;;;;;;;4956759;28;20043;-45
2021/07/13 10:04:29;;;;;;;9.88;8.88;;;;;;;;;;4955431;28;20548;-46
2021/07/13 10:06:58;;;;;;;6.55;5.30;;;;;;;;;;4957803;28;20118;-49
2021/07/13 10:09:29;;;;;;;5.80;3.55;;;;;;;;;;4968480;28;20408;-47
2021/07/13 10:11:56;;;;;;;4.15;2.55;;;;;;;;;;4956778;28;20047;-44
2021/07/13 10:14:23;;;;;;;2.50;1.88;;;;;;;;;;4961014;28;20047;-48
2021/07/13 10:16:50;;;;;;;3.35;1.40;;;;;;;;;;4961646;28;20047;-45
2021/07/13 10:19:18;;;;;;;3.80;1.17;;;;;;;;;;4949740;28;20046;-47
2021/07/13 10:21:46;;;;;;;2.60;0.93;;;;;;;;;;4966954;28;20050;-45
2021/07/13 10:24:14;;;;;;;1.35;1.05;;;;;;;;;;4962982;28;20135;-45
2021/07/13 10:26:51;;;;;;;3.67;0.80;;;;;;;;;;4952145;28;20538;-48
2021/07/13 10:29:34;;;;;;;1.20;0.65;;;;;;;;;;4953070;28;20563;-47
2021/07/13 10:32:02;;;;;;;4.00;0.85;;;;;;;;;;4953808;28;20062;-47
2021/07/13 10:34:53;;;;;;;1.90;0.63;;;;;;;;;;4957759;28;20035;-43
2021/07/13 10:37:31;;;;;;;3.10;0.80;;;;;;;;;;4927851;28;20110;-44
2021/07/13 10:40:00;;;;;;;0.55;0.55;;;;;;;;;;4939171;29;20196;-47
2021/07/13 10:42:42;;;;;;;1.83;0.60;;;;;;;;;;4965807;28;20101;-44
2021/07/13 10:45:15;;;;;;;1.88;0.75;;;;;;;;;;4951699;28;20066;-46
2021/07/13 10:47:56;;;;;;;2.55;0.68;;;;;;;;;;4954918;28;20436;-44
2021/07/13 10:50:27;;;;;;;1.10;0.50;;;;;;;;;;4953094;28;20113;-45
2021/07/13 10:53:29;;;;;;;0.82;0.50;;;;;;;;;;4950428;28;20114;-46
2021/07/13 10:56:00;;;;;;;3.63;0.60;;;;;;;;;;4921855;28;20412;-47
2021/07/13 10:58:37;;;;;;;0.43;0.40;;;;;;;;;;4953533;28;20509;-45
2021/07/13 11:01:08;;;;;;;2.05;0.60;;;;;;;;;;4963924;28;20043;-43
2021/07/13 11:03:36;;;;;;;2.72;0.57;;;;;;;;;;4955899;28;20117;-46
2021/07/13 11:06:04;;;;;;;1.48;0.63;;;;;;;;;;4956055;28;20045;-43
2021/07/13 11:08:52;;;;;;;1.83;0.65;;;;;;;;;;4963379;28;20047;-44
2021/07/13 11:11:22;;;;;;;2.15;0.50;;;;;;;;;;4945004;29;20489;-45
2021/07/13 11:13:53;;;;;;;1.38;0.85;;;;;;;;;;4955259;28;20054;-43
2021/07/13 11:16:22;;;;;;;1.95;0.70;;;;;;;;;;4948543;28;20091;-49
2021/07/13 11:18:49;;;;;;;0.75;0.60;;;;;;;;;;4945385;29;20048;-43
2021/07/13 11:21:23;;;;;;;0.85;0.52;;;;;;;;;;4947245;28;20047;-46
2021/07/13 11:27:01;;;;;;;1.52;0.50;;;;;;;;;;4963879;28;20062;-44
2021/07/13 11:29:29;;;;;;;2.35;0.73;;;;;;;;;;4960897;28;20086;-43
2021/07/13 11:31:57;;;;;;;0.80;0.63;;;;;;;;;;4954516;28;20039;-46
2021/07/13 11:34:26;;;;;;;1.50;0.45;;;;;;;;;;4954354;29;20106;-43
2021/07/13 11:36:53;;;;;;;3.92;0.70;;;;;;;;;;4962111;28;20126;-48
2021/07/13 11:39:23;;;;;;;2.25;0.50;;;;;;;;;;4958753;28;20122;-49
2021/07/13 11:41:55;;;;;;;2.78;0.52;;;;;;;;;;4950847;28;20572;-49
2021/07/13 11:44:22;;;;;;;1.40;0.60;;;;;;;;;;4956053;28;20563;-45
2021/07/13 11:46:50;;;;;;;2.75;0.50;;;;;;;;;;4955046;28;20126;-46
2021/07/13 11:49:23;;;;;;;2.08;0.50;;;;;;;;;;4952986;28;20074;-45
2021/07/13 11:51:50;;;;;;;3.03;0.60;;;;;;;;;;4954486;28;20051;-44
2021/07/13 11:54:18;;;;;;;1.13;0.60;;;;;;;;;;4953239;28;20051;-44
2021/07/13 11:56:47;;;;;;;0.77;0.60;;;;;;;;;;4954433;28;20043;-45
2021/07/13 11:59:15;;;;;;;0.60;0.38;;;;;;;;;;4949248;28;20039;-44
2021/07/13 12:01:47;;;;;;;0.98;0.45;;;;;;;;;;4954641;29;20110;-45
2021/07/13 12:04:13;;;;;;;0.60;0.50;;;;;;;;;;4954587;28;20465;-44
2021/07/13 12:06:41;;;;;;;0.93;0.40;;;;;;;;;;4961502;28;20126;-44
2021/07/13 12:09:11;;;;;;;2.38;0.50;;;;;;;;;;4955659;28;20079;-45
2021/07/13 12:11:43;;;;;;;0.95;0.40;;;;;;;;;;4953660;28;20071;-45
2021/07/13 12:14:12;;;;;;;2.17;0.40;;;;;;;;;;4953643;28;20067;-46
2021/07/13 12:16:39;;;;;;;0.50;0.30;;;;;;;;;;4950204;28;20114;-45
2021/07/13 12:19:09;;;;;;;0.40;0.40;;;;;;;;;;4949724;28;20051;-46
2021/07/13 12:21:40;;;;;;;0.70;0.50;;;;;;;;;;4954209;28;20106;-44
2021/07/13 12:24:09;;;;;;;6.45;4.47;;;;;;;;;;4957286;28;20074;-46
2021/07/13 12:26:37;;;;;;;1.00;0.60;;;;;;;;;;4957279;28;20138;-47
2021/07/13 12:29:05;;;;;;;1.85;0.80;;;;;;;;;;4945218;28;20052;-47
2021/07/13 12:31:36;;;;;;;0.88;0.45;;;;;;;;;;4935325;29;20047;-45
2021/07/13 12:34:05;;;;;;;1.58;0.40;;;;;;;;;;4946404;28;20047;-45
2021/07/13 12:36:34;;;;;;;2.15;0.70;;;;;;;;;;4955437;28;20040;-48
2021/07/13 12:39:21;;;;;;;0.68;0.52;;;;;;;;;;4953254;28;20047;-43
2021/07/13 12:42:06;;;;;;;1.15;0.65;;;;;;;;;;4953033;28;20055;-43
2021/07/13 12:44:35;;;;;;;0.20;0.20;;;;;;;;;;4949061;28;20111;-45
2021/07/13 12:47:14;;;;;;;1.02;0.50;;;;;;;;;;4939369;29;20055;-43
2021/07/13 12:49:42;;;;;;;0.30;0.30;;;;;;;;;;4953227;28;20051;-42
2021/07/13 12:52:13;;;;;;;0.57;0.30;;;;;;;;;;4937374;29;20061;-42
2021/07/13 12:54:56;;;;;;;0.63;0.40;;;;;;;;;;4950550;28;20059;-44
2021/07/13 12:57:34;;;;;;;0.40;0.40;;;;;;;;;;4956191;28;20054;-44
2021/07/13 13:00:01;;;;;;;0.85;0.40;;;;;;;;;;4950559;28;20047;-50
2021/07/13 13:02:33;;;;;;;0.85;0.40;;;;;;;;;;4953058;28;20047;-47
2021/07/13 13:05:00;;;;;;;3.85;0.38;;;;;;;;;;4943771;28;20067;-47
2021/07/13 13:07:27;;;;;;;0.30;0.30;;;;;;;;;;4950659;28;20177;-46
2021/07/13 13:09:55;;;;;;;0.47;0.40;;;;;;;;;;4930843;29;20547;-47
2021/07/13 13:12:22;;;;;;;0.20;0.20;;;;;;;;;;4952790;28;20051;-46
2021/07/13 13:14:50;;;;;;;1.45;0.32;;;;;;;;;;4953979;28;20034;-43
2021/07/13 13:17:17;;;;;;;2.03;0.45;;;;;;;;;;4953809;28;20114;-46
2021/07/13 13:19:45;;;;;;;0.30;0.30;;;;;;;;;;4947606;28;20134;-45
2021/07/13 13:22:15;;;;;;;3.35;0.35;;;;;;;;;;4953226;28;20083;-45
2021/07/13 13:24:41;;;;;;;1.88;0.30;;;;;;;;;;4951466;28;20047;-44
2021/07/13 13:27:09;;;;;;;0.93;0.40;;;;;;;;;;4938207;28;20067;-45
2021/07/13 13:29:37;;;;;;;0.65;0.40;;;;;;;;;;4943178;28;20047;-45
2021/07/13 13:32:04;;;;;;;2.13;0.50;;;;;;;;;;4951052;28;20055;-48
2021/07/13 13:34:34;;;;;;;0.70;0.50;;;;;;;;;;4960806;28;20048;-46
2021/07/13 13:37:07;;;;;;;0.90;0.50;;;;;;;;;;4954968;28;20486;-44
2021/07/13 13:39:33;;;;;;;1.55;0.60;;;;;;;;;;4944019;29;20417;-44
2021/07/13 13:42:01;;;;;;;0.60;0.57;;;;;;;;;;4951021;28;20040;-44
2021/07/13 13:44:29;;;;;;;1.83;0.45;;;;;;;;;;4950407;29;20043;-47
2021/07/13 13:46:56;;;;;;;2.22;0.60;;;;;;;;;;4948320;28;20551;-48
2021/07/13 13:49:24;;;;;;;1.58;0.70;;;;;;;;;;4945081;28;20047;-48
2021/07/13 13:51:51;;;;;;;4.72;1.20;;;;;;;;;;4958452;28;20125;-42
2021/07/13 13:54:18;;;;;;;1.98;1.20;;;;;;;;;;4948889;28;20118;-51
2021/07/13 13:56:45;;;;;;;5.82;1.10;;;;;;;;;;4948058;28;20487;-46
2021/07/13 13:59:12;;;;;;;5.35;1.88;;;;;;;;;;4944880;28;20043;-45
2021/07/13 14:01:38;;;;;;;4.30;1.60;;;;;;;;;;4951611;28;20474;-47
2021/07/13 14:04:05;;;;;;;2.25;0.93;;;;;;;;;;4951881;28;20102;-45
2021/07/13 14:06:32;;;;;;;2.47;1.13;;;;;;;;;;4952544;28;20501;-44
2021/07/13 14:09:01;;;;;;;3.15;1.20;;;;;;;;;;4943040;28;20130;-43
2021/07/13 14:11:29;;;;;;;6.95;2.65;;;;;;;;;;4952542;28;20134;-46
2021/07/13 14:13:56;;;;;;;1.60;1.05;;;;;;;;;;4955669;28;20110;-45
2021/07/13 14:16:23;;;;;;;1.33;0.80;;;;;;;;;;4958280;28;20031;-45
2021/07/13 14:18:50;;;;;;;1.10;0.80;;;;;;;;;;4946373;28;20127;-45
2021/07/13 14:21:17;;;;;;;2.90;1.00;;;;;;;;;;4952961;28;20047;-46
2021/07/13 14:23:44;;;;;;;1.67;0.90;;;;;;;;;;4956271;28;20101;-45
2021/07/13 14:26:11;;;;;;;2.35;1.00;;;;;;;;;;4951330;28;20070;-44
2021/07/13 14:28:38;;;;;;;1.65;0.98;;;;;;;;;;4952062;28;21735;-44
2021/07/13 14:31:05;;;;;;;2.80;0.85;;;;;;;;;;4945683;28;20047;-47
2021/07/13 14:33:31;;;;;;;3.65;1.00;;;;;;;;;;4960221;28;20449;-46
2021/07/13 14:35:58;;;;;;;2.42;1.00;;;;;;;;;;4966137;28;20114;-43
2021/07/13 14:38:25;;;;;;;4.38;1.13;;;;;;;;;;4951928;28;20062;-44
2021/07/13 14:40:52;;;;;;;1.55;0.95;;;;;;;;;;4955585;28;20036;-45
2021/07/13 14:43:19;;;;;;;1.63;0.85;;;;;;;;;;4953955;28;20046;-49
2021/07/13 14:45:46;;;;;;;2.35;1.10;;;;;;;;;;4955343;28;20532;-42
2021/07/13 14:48:13;;;;;;;1.60;0.98;;;;;;;;;;4953042;28;20142;-45
2021/07/13 14:50:44;;;;;;;2.50;1.15;;;;;;;;;;4955521;28;20067;-45
2021/07/13 14:53:16;;;;;;;3.92;1.15;;;;;;;;;;4959142;28;20114;-45
2021/07/13 14:55:44;;;;;;;1.98;1.10;;;;;;;;;;4975119;28;20082;-46
2021/07/13 14:58:11;;;;;;;2.78;1.25;;;;;;;;;;4950142;28;20162;-44